Aviation Digital Data Service (ADDS)

Output produced by METARs form (2305 UTC 19 April 2021)
found at http://aviationweather.gov/metar/data/
 
METAR text: KDKB 192255Z AUTO 29014G18KT 10SM BKN050 OVC095 08/M03 A2992 RMK AO2 T00801033
Conditions at: KDKB (DE KALB , IL, US) observed 2255 UTC 19 April 2021
Temperature: 8.0°C (46°F)
Dewpoint: -3.3°C (26°F) [RH = 45%]
Pressure (altimeter): 29.92 inches Hg (1013.3 mb)
Winds: from the WNW (290 degrees) at 16 MPH (14 knots; 7.2 m/s)
gusting to 21 MPH (18 knots; 9.3 m/s)
Visibility: 10 or more miles (16+ km)
Ceiling: 5000 feet AGL
Clouds: broken clouds at 5000 feet AGL
overcast cloud deck at 9500 feet AGL
Weather: automated observation with no human augmentation;
there may or may not be significant weather present at this time